createdAt,value
2018-07-05T00:01:02.378Z,22.10
2018-07-05T00:03:42.128Z,22.10
2018-07-05T00:06:21.880Z,22.00
2018-07-05T00:09:01.404Z,22.00
2018-07-05T00:11:41.104Z,21.90
2018-07-05T00:14:20.771Z,21.80
2018-07-05T00:17:00.440Z,21.80
2018-07-05T00:22:13.721Z,21.70
2018-07-05T00:24:53.323Z,21.70
2018-07-05T00:27:33.135Z,21.60
2018-07-05T00:30:12.776Z,21.50
2018-07-05T00:32:52.772Z,21.40
2018-07-05T00:38:06.026Z,21.30
2018-07-05T00:40:45.576Z,21.30
2018-07-05T00:43:25.156Z,21.20
2018-07-05T00:46:04.670Z,21.10
2018-07-05T00:48:44.416Z,21.10
2018-07-05T00:51:24.208Z,21.10
2018-07-05T00:54:03.799Z,21.00
2018-07-05T00:56:43.512Z,20.90
2018-07-05T00:59:23.319Z,20.80
2018-07-05T01:02:03.040Z,20.70
2018-07-05T01:04:42.672Z,20.60
2018-07-05T01:07:22.251Z,20.50
2018-07-05T01:10:01.844Z,20.40
2018-07-05T01:12:41.559Z,20.40
2018-07-05T01:15:21.199Z,20.30
2018-07-05T01:18:00.741Z,20.20
2018-07-05T01:20:40.340Z,20.10
2018-07-05T01:23:20.120Z,20.10
2018-07-05T01:25:59.820Z,20.00
2018-07-05T01:36:20.368Z,19.90
2018-07-05T01:41:33.726Z,19.90
2018-07-05T01:44:13.335Z,19.90
2018-07-05T01:46:53.013Z,19.90
2018-07-05T01:49:32.822Z,19.90
2018-07-05T01:52:13.342Z,19.80
2018-07-05T01:54:53.788Z,19.70
2018-07-05T01:57:34.168Z,19.60
2018-07-05T02:00:14.072Z,19.60
2018-07-05T02:02:54.381Z,19.60
2018-07-05T02:05:34.732Z,19.50
2018-07-05T02:08:14.511Z,19.50
2018-07-05T02:10:54.208Z,19.50
2018-07-05T02:13:33.900Z,19.50
2018-07-05T02:16:13.604Z,19.40
2018-07-05T02:18:53.176Z,19.40
2018-07-05T02:21:32.834Z,19.30
2018-07-05T02:24:12.460Z,19.30
2018-07-05T02:26:52.252Z,19.40
2018-07-05T02:29:31.902Z,19.30
2018-07-05T02:34:45.198Z,19.30
2018-07-05T02:37:30.427Z,19.40
2018-07-05T02:40:10.080Z,19.30
2018-07-05T02:45:23.698Z,19.30
2018-07-05T02:48:03.264Z,19.20
2018-07-05T02:50:42.912Z,19.20
2018-07-05T02:53:22.577Z,19.20
2018-07-05T02:56:02.175Z,19.20
2018-07-05T02:58:41.937Z,19.20
2018-07-05T03:03:55.317Z,19.00
2018-07-05T03:06:34.951Z,18.90
2018-07-05T03:09:14.523Z,18.80
2018-07-05T03:11:54.209Z,18.70
2018-07-05T03:14:33.900Z,18.60
2018-07-05T03:17:13.500Z,18.60
2018-07-05T03:19:53.323Z,18.60
2018-07-05T03:22:33.267Z,18.60
2018-07-05T03:25:13.063Z,18.60
2018-07-05T03:30:26.397Z,18.60
2018-07-05T03:33:06.240Z,18.60
2018-07-05T03:35:45.880Z,18.60
2018-07-05T03:38:25.513Z,18.50
2018-07-05T03:41:05.082Z,18.50
2018-07-05T03:43:44.716Z,18.40
2018-07-05T03:46:24.344Z,18.40
2018-07-05T03:49:04.036Z,18.40
2018-07-05T03:51:43.861Z,18.30
2018-07-05T03:54:23.491Z,18.40
2018-07-05T03:57:03.112Z,18.40
2018-07-05T03:59:42.800Z,18.40
2018-07-05T04:04:55.988Z,18.40
2018-07-05T04:07:35.711Z,18.40
2018-07-05T04:10:15.244Z,18.30
2018-07-05T04:12:54.683Z,18.30
2018-07-05T04:15:34.330Z,18.30
2018-07-05T04:18:14.041Z,18.30
2018-07-05T04:20:53.707Z,18.30
2018-07-05T04:26:06.764Z,18.40
2018-07-05T04:28:46.382Z,18.30
2018-07-05T04:31:26.137Z,18.30
2018-07-05T04:34:05.996Z,18.30
2018-07-05T04:36:45.744Z,18.40
2018-07-05T04:39:25.281Z,18.40
2018-07-05T04:44:38.615Z,18.40
2018-07-05T04:47:18.308Z,18.40
2018-07-05T04:49:57.832Z,18.40
2018-07-05T04:52:37.716Z,18.50
2018-07-05T04:55:17.653Z,18.50
2018-07-05T04:57:57.270Z,18.60
2018-07-05T05:00:36.966Z,18.60
2018-07-05T05:03:16.604Z,18.70
2018-07-05T05:05:56.392Z,18.70
2018-07-05T05:11:09.651Z,18.80
2018-07-05T05:13:49.232Z,18.80
2018-07-05T05:16:28.959Z,18.80
2018-07-05T05:19:08.595Z,18.90
2018-07-05T05:21:48.221Z,18.90
2018-07-05T05:24:27.800Z,18.80
2018-07-05T05:27:07.502Z,18.80
2018-07-05T05:29:47.189Z,18.90
2018-07-05T05:32:27.406Z,18.90
2018-07-05T05:37:41.306Z,19.00
2018-07-05T05:40:20.857Z,19.10
2018-07-05T05:43:01.327Z,19.20
2018-07-05T05:45:41.104Z,19.20
2018-07-05T05:48:20.914Z,19.20
2018-07-05T05:51:00.819Z,19.20
2018-07-05T05:56:14.093Z,19.30
2018-07-05T05:58:53.820Z,19.30
2018-07-05T06:04:07.108Z,19.50
2018-07-05T06:06:46.603Z,19.50
2018-07-05T06:09:26.213Z,19.60
2018-07-05T06:12:05.772Z,19.60
2018-07-05T06:14:45.348Z,19.50
2018-07-05T06:17:24.955Z,19.50
2018-07-05T06:20:04.535Z,19.50
2018-07-05T06:22:44.268Z,19.50
2018-07-05T06:25:23.860Z,19.50
2018-07-05T06:28:03.368Z,19.50
2018-07-05T06:30:42.971Z,19.50
2018-07-05T06:33:22.764Z,19.50
2018-07-05T06:36:02.530Z,19.60
2018-07-05T06:38:42.088Z,19.60
2018-07-05T06:41:21.660Z,19.60
2018-07-05T06:44:01.196Z,19.70
2018-07-05T06:46:40.852Z,19.90
2018-07-05T06:49:20.493Z,19.90
2018-07-05T06:52:00.348Z,20.00
2018-07-05T06:57:13.592Z,20.10
2018-07-05T06:59:53.230Z,20.10
2018-07-05T07:05:06.731Z,20.30
2018-07-05T07:07:46.244Z,20.40
2018-07-05T07:10:25.999Z,20.40
2018-07-05T07:13:05.608Z,20.50
2018-07-05T07:15:45.276Z,20.50
2018-07-05T07:18:24.967Z,20.50
2018-07-05T07:21:04.768Z,20.60
2018-07-05T07:23:44.399Z,20.60
2018-07-05T07:28:57.615Z,20.80
2018-07-05T07:31:37.349Z,20.90
2018-07-05T07:34:16.995Z,20.90
2018-07-05T07:36:56.692Z,21.00
2018-07-05T07:41:57.631Z,21.20
2018-07-05T07:44:24.920Z,21.40
2018-07-05T07:46:52.239Z,21.50
2018-07-05T07:51:47.148Z,21.60
2018-07-05T07:54:14.442Z,21.70
2018-07-05T07:56:41.759Z,21.70
2018-07-05T07:59:09.055Z,21.80
2018-07-05T08:01:36.347Z,21.90
2018-07-05T08:04:03.674Z,22.00
2018-07-05T08:06:30.959Z,22.00
2018-07-05T08:08:58.282Z,22.00
2018-07-05T08:11:25.566Z,22.10
2018-07-05T08:13:53.040Z,22.10
2018-07-05T08:16:20.331Z,22.30
2018-07-05T08:18:47.642Z,22.30
2018-07-05T08:21:14.970Z,22.40
2018-07-05T08:23:42.335Z,22.40
2018-07-05T08:26:09.630Z,22.60
2018-07-05T08:28:36.941Z,22.60
2018-07-05T08:31:04.227Z,22.60
2018-07-05T08:33:31.575Z,22.70
2018-07-05T08:36:00.183Z,22.80
2018-07-05T08:38:27.603Z,22.80
2018-07-05T08:40:54.908Z,22.90
2018-07-05T08:43:22.228Z,22.90
2018-07-05T08:45:49.525Z,23.00
2018-07-05T08:48:16.853Z,23.10
2018-07-05T08:50:44.144Z,23.20
2018-07-05T08:53:11.479Z,23.30
2018-07-05T08:55:38.770Z,23.40
2018-07-05T08:58:06.067Z,23.60
2018-07-05T09:00:33.383Z,23.60
2018-07-05T09:03:00.672Z,23.80
2018-07-05T09:05:27.987Z,24.00
2018-07-05T09:07:55.273Z,24.10
2018-07-05T09:10:22.594Z,24.10
2018-07-05T09:12:49.884Z,24.20
2018-07-05T09:15:17.215Z,24.20
2018-07-05T09:17:44.672Z,24.30
2018-07-05T09:20:11.858Z,24.40
2018-07-05T09:22:39.167Z,24.50
2018-07-05T09:25:06.492Z,24.70
2018-07-05T09:30:01.364Z,24.80
2018-07-05T09:32:28.659Z,24.90
2018-07-05T09:34:55.984Z,25.00
2018-07-05T09:37:23.330Z,25.10
2018-07-05T09:39:50.631Z,25.30
2018-07-05T09:42:17.923Z,25.50
2018-07-05T09:44:45.247Z,25.60
2018-07-05T09:47:12.547Z,25.70
2018-07-05T09:49:39.871Z,25.80
2018-07-05T09:52:07.159Z,26.00
2018-07-05T09:54:34.505Z,26.00
2018-07-05T09:57:01.806Z,26.20
2018-07-05T09:59:29.092Z,26.30
2018-07-05T10:01:56.407Z,26.40
2018-07-05T10:06:51.282Z,26.40
2018-07-05T10:09:18.575Z,26.40
2018-07-05T10:11:45.900Z,26.50
2018-07-05T10:14:13.187Z,26.70
2018-07-05T10:16:40.523Z,26.90
2018-07-05T10:19:07.819Z,26.90
2018-07-05T10:21:35.132Z,27.00
2018-07-05T10:24:02.420Z,27.10
2018-07-05T10:26:29.808Z,27.20
2018-07-05T10:29:09.447Z,27.30
2018-07-05T10:31:49.107Z,27.40
2018-07-05T10:34:16.400Z,27.60
2018-07-05T10:36:43.745Z,27.60
2018-07-05T10:39:11.031Z,27.80
2018-07-05T10:41:50.656Z,27.80
2018-07-05T10:47:04.119Z,27.90
2018-07-05T10:49:43.885Z,28.10
2018-07-05T10:52:23.753Z,28.30
2018-07-05T10:55:03.439Z,28.30
2018-07-05T10:57:44.032Z,28.50
2018-07-05T11:00:23.796Z,28.60
2018-07-05T11:03:03.402Z,28.70
2018-07-05T11:08:16.857Z,28.80
2018-07-05T11:10:56.563Z,28.80
2018-07-05T11:13:36.212Z,28.80
2018-07-05T11:16:15.851Z,29.00
2018-07-05T11:18:55.517Z,29.20
2018-07-05T11:21:35.044Z,29.10
2018-07-05T11:24:14.627Z,29.10
2018-07-05T11:26:54.123Z,29.20
2018-07-05T11:29:33.756Z,29.40
2018-07-05T11:32:13.316Z,29.50
2018-07-05T11:34:52.971Z,29.60
2018-07-05T11:37:32.780Z,29.60
2018-07-05T11:40:15.186Z,29.70
2018-07-05T11:42:55.243Z,29.80
2018-07-05T11:45:34.956Z,29.90
2018-07-05T11:48:14.575Z,29.90
2018-07-05T11:53:28.136Z,29.80
2018-07-05T11:58:41.323Z,29.60
2018-07-05T12:01:20.967Z,29.60
2018-07-05T12:04:00.683Z,29.80
2018-07-05T12:06:40.188Z,30.00
2018-07-05T12:09:19.784Z,30.10
2018-07-05T12:11:59.259Z,30.30
2018-07-05T12:14:38.872Z,30.40
2018-07-05T12:17:18.391Z,30.50
2018-07-05T12:19:58.480Z,30.70
2018-07-05T12:22:38.138Z,30.80
2018-07-05T12:25:17.916Z,30.80
2018-07-05T12:30:31.173Z,31.20
2018-07-05T12:35:44.739Z,31.30
2018-07-05T12:38:24.460Z,31.40
2018-07-05T12:41:03.980Z,31.70
2018-07-05T12:43:44.616Z,31.70
2018-07-05T12:46:24.244Z,31.60
2018-07-05T12:49:03.828Z,31.80
2018-07-05T12:51:43.408Z,32.10
2018-07-05T12:56:56.547Z,32.40
2018-07-05T13:02:09.772Z,32.40
2018-07-05T13:04:49.736Z,32.50
2018-07-05T13:07:29.559Z,32.60
2018-07-05T13:10:09.108Z,32.70
2018-07-05T13:12:48.876Z,32.70
2018-07-05T13:15:28.411Z,32.60
2018-07-05T13:18:08.203Z,32.50
2018-07-05T13:20:47.723Z,32.40
2018-07-05T13:28:34.988Z,32.10
2018-07-05T13:31:14.653Z,32.20
2018-07-05T13:33:54.796Z,32.30
2018-07-05T13:36:34.460Z,32.10
2018-07-05T13:39:14.151Z,31.90
2018-07-05T13:41:53.815Z,32.00
2018-07-05T13:44:33.579Z,32.20
2018-07-05T13:47:13.187Z,32.40
2018-07-05T13:49:52.836Z,32.80
2018-07-05T13:52:32.479Z,33.00
2018-07-05T13:55:12.306Z,33.10
2018-07-05T13:57:51.898Z,33.20
2018-07-05T14:00:31.634Z,33.20
2018-07-05T14:03:11.348Z,32.90
2018-07-05T14:05:51.044Z,32.80
2018-07-05T14:08:30.727Z,32.80
2018-07-05T14:11:10.356Z,32.80
2018-07-05T14:13:50.047Z,32.80
2018-07-05T14:19:03.380Z,32.90
2018-07-05T14:21:43.020Z,33.10
2018-07-05T14:24:22.694Z,33.10
2018-07-05T14:29:37.506Z,32.60
2018-07-05T14:32:17.168Z,32.50
2018-07-05T14:34:56.984Z,32.40
2018-07-05T14:37:36.645Z,32.20
2018-07-05T14:40:16.317Z,32.40
2018-07-05T14:42:55.889Z,32.80
2018-07-05T14:45:35.531Z,32.90
2018-07-05T14:48:15.090Z,32.60
2018-07-05T14:50:54.699Z,32.50
2018-07-05T14:53:34.372Z,32.40
2018-07-05T14:56:14.022Z,32.60
2018-07-05T14:58:53.866Z,32.80
2018-07-05T15:01:33.898Z,32.90
2018-07-05T15:04:13.603Z,33.00
2018-07-05T15:06:53.344Z,33.00
2018-07-05T15:09:33.192Z,33.00
2018-07-05T15:12:12.899Z,33.10
2018-07-05T15:17:26.287Z,32.70
2018-07-05T15:20:05.925Z,32.90
2018-07-05T15:22:45.543Z,33.30
2018-07-05T15:25:25.164Z,33.50
2018-07-05T15:28:04.928Z,33.60
2018-07-05T15:30:44.531Z,33.60
2018-07-05T15:33:24.204Z,33.80
2018-07-05T15:36:03.863Z,33.90
2018-07-05T15:41:17.216Z,34.10
2018-07-05T15:43:57.020Z,34.00
2018-07-05T15:46:36.574Z,34.10
2018-07-05T15:49:16.171Z,34.00
2018-07-05T15:51:55.916Z,34.00
2018-07-05T15:54:35.507Z,34.00
2018-07-05T15:57:15.239Z,33.80
2018-07-05T15:59:54.940Z,33.60
2018-07-05T16:02:34.699Z,33.60
2018-07-05T16:05:14.411Z,33.50
2018-07-05T16:10:27.880Z,33.60
2018-07-05T16:13:07.621Z,33.60
2018-07-05T16:15:47.323Z,33.60
2018-07-05T16:18:27.035Z,33.60
2018-07-05T16:21:06.717Z,33.50
2018-07-05T16:23:46.307Z,33.30
2018-07-05T16:26:25.908Z,33.30
2018-07-05T16:29:05.691Z,33.20
2018-07-05T16:31:45.327Z,33.20
2018-07-05T16:34:25.159Z,33.30
2018-07-05T16:37:04.704Z,33.20
2018-07-05T16:39:44.342Z,33.10
2018-07-05T16:42:24.065Z,33.10
2018-07-05T16:45:03.795Z,32.90
2018-07-05T16:47:43.555Z,32.50
2018-07-05T16:50:23.124Z,32.50
2018-07-05T16:53:02.844Z,32.50
2018-07-05T16:55:42.631Z,32.50
2018-07-05T16:58:22.420Z,32.50
2018-07-05T17:01:02.122Z,32.60
2018-07-05T17:06:15.794Z,32.60
2018-07-05T17:08:55.460Z,32.60
2018-07-05T17:11:35.092Z,32.30
2018-07-05T17:14:14.811Z,32.10
2018-07-05T17:16:54.422Z,32.20
2018-07-05T17:19:34.108Z,32.30
2018-07-05T17:22:13.700Z,32.30
2018-07-05T17:24:53.483Z,32.40
2018-07-05T17:30:06.927Z,32.90
2018-07-05T17:35:20.368Z,32.90
2018-07-05T17:37:59.919Z,33.00
2018-07-05T17:40:39.609Z,32.80
2018-07-05T17:43:19.302Z,32.80
2018-07-05T17:45:58.981Z,32.80
2018-07-05T17:48:38.580Z,33.10
2018-07-05T17:51:18.251Z,33.20
2018-07-05T17:56:31.633Z,33.10
2018-07-05T17:59:11.466Z,33.00
2018-07-05T18:04:24.912Z,33.20
2018-07-05T18:07:04.631Z,33.10
2018-07-05T18:09:44.257Z,32.90
2018-07-05T18:12:23.931Z,32.60
2018-07-05T18:15:03.508Z,32.20
2018-07-05T18:17:43.098Z,31.30
2018-07-05T18:20:22.811Z,30.60
2018-07-05T18:23:02.366Z,30.00
2018-07-05T18:25:42.150Z,29.50
2018-07-05T18:28:21.739Z,29.10
2018-07-05T18:31:01.488Z,28.80
2018-07-05T18:33:41.062Z,28.40
2018-07-05T18:36:20.728Z,28.10
2018-07-05T18:41:34.091Z,27.60
2018-07-05T18:44:13.671Z,27.50
2018-07-05T18:46:53.393Z,27.30
2018-07-05T18:49:32.999Z,27.10
2018-07-05T18:52:12.775Z,26.80
2018-07-05T18:54:52.320Z,26.50
2018-07-05T18:57:31.936Z,26.10
2018-07-05T19:00:11.619Z,26.00
2018-07-05T19:02:51.220Z,25.90
2018-07-05T19:05:30.952Z,25.80
2018-07-05T19:08:10.432Z,25.50
2018-07-05T19:10:50.206Z,25.20
2018-07-05T19:16:03.583Z,25.00
2018-07-05T19:21:17.050Z,24.70
2018-07-05T19:23:56.650Z,24.70
2018-07-05T19:26:36.340Z,24.80
2018-07-05T19:29:16.176Z,24.90
2018-07-05T19:31:55.907Z,24.70
2018-07-05T19:34:35.488Z,24.60
2018-07-05T19:42:22.509Z,24.30
2018-07-05T19:45:02.224Z,24.10
2018-07-05T19:47:41.948Z,24.00
2018-07-05T19:50:21.648Z,23.90
2018-07-05T19:53:01.368Z,23.90
2018-07-05T19:55:40.955Z,23.80
2018-07-05T19:58:20.629Z,23.70
2018-07-05T20:01:00.352Z,23.60
2018-07-05T20:03:40.020Z,23.50
2018-07-05T20:14:00.984Z,23.10
2018-07-05T20:16:40.678Z,23.10
2018-07-05T20:19:20.243Z,22.90
2018-07-05T20:24:33.500Z,22.70
2018-07-05T20:27:13.122Z,22.60
2018-07-05T20:29:52.787Z,22.50
2018-07-05T20:35:06.066Z,22.40
2018-07-05T20:37:45.654Z,22.40
2018-07-05T20:40:25.299Z,22.30
2018-07-05T20:43:04.943Z,22.20
2018-07-05T20:45:44.714Z,22.10
2018-07-05T20:50:58.242Z,21.90
2018-07-05T20:53:37.879Z,21.80
2018-07-05T20:56:17.536Z,21.70
2018-07-05T20:58:57.203Z,21.60
2018-07-05T21:01:36.687Z,21.50
2018-07-05T21:04:16.433Z,21.40
2018-07-05T21:06:56.148Z,21.20
2018-07-05T21:09:35.996Z,21.20
2018-07-05T21:12:15.637Z,21.20
2018-07-05T21:14:55.380Z,21.10
2018-07-05T21:17:34.996Z,21.10
2018-07-05T21:20:14.672Z,21.00
2018-07-05T21:22:54.295Z,21.10
2018-07-05T21:25:33.960Z,21.10
2018-07-05T21:28:13.680Z,21.00
2018-07-05T21:36:00.864Z,20.60
2018-07-05T21:38:40.484Z,20.50
2018-07-05T21:46:27.476Z,20.40
2018-07-05T21:49:07.035Z,20.30
2018-07-05T21:51:46.855Z,20.30
2018-07-05T21:54:26.592Z,20.10
2018-07-05T21:57:06.360Z,20.10
2018-07-05T21:59:45.972Z,20.00
2018-07-05T22:04:59.313Z,20.00
2018-07-05T22:07:39.036Z,19.90
2018-07-05T22:10:18.913Z,19.90
2018-07-05T22:12:58.473Z,19.80
2018-07-05T22:15:38.152Z,19.60
2018-07-05T22:18:23.324Z,19.50
2018-07-05T22:21:09.358Z,19.40
2018-07-05T22:23:54.681Z,19.30
2018-07-05T22:26:39.948Z,19.20
2018-07-05T22:29:25.094Z,19.20
2018-07-05T22:32:04.666Z,19.20
2018-07-05T22:34:44.235Z,19.20
2018-07-05T22:37:23.884Z,19.20
2018-07-05T22:40:03.427Z,19.10
2018-07-05T22:42:43.136Z,19.20
2018-07-05T22:45:22.709Z,19.20
2018-07-05T22:48:02.512Z,19.20
2018-07-05T22:50:42.424Z,19.20
2018-07-05T22:53:21.982Z,19.30
2018-07-05T22:56:01.547Z,19.20
2018-07-05T22:58:41.091Z,19.20
2018-07-05T23:01:20.764Z,19.20
2018-07-05T23:04:00.453Z,19.10
2018-07-05T23:06:40.291Z,19.00
2018-07-05T23:09:19.939Z,19.00
2018-07-05T23:11:59.668Z,18.90
2018-07-05T23:14:39.463Z,18.80
2018-07-05T23:17:18.975Z,18.80
2018-07-05T23:19:58.527Z,18.70
2018-07-05T23:25:11.768Z,18.60
2018-07-05T23:27:51.399Z,18.50
2018-07-05T23:30:31.080Z,18.50
2018-07-05T23:33:10.837Z,18.50
2018-07-05T23:35:50.527Z,18.40
2018-07-05T23:38:30.187Z,18.40
2018-07-05T23:41:09.832Z,18.30
2018-07-05T23:43:49.567Z,18.30
2018-07-05T23:46:29.164Z,18.20
2018-07-05T23:49:08.903Z,18.20
2018-07-05T23:51:48.671Z,18.10
2018-07-05T23:54:28.312Z,18.10
2018-07-05T23:57:08.032Z,18.10
2018-07-05T23:59:47.448Z,18.10
